Hinojo, Argentina
Current Conditions -  °F | °C
As of 5:00 PM on Thursday 23 Oct 2014 (Local Time) from SAZM Reporting Station
Moderate Rain Moderate Rain  
Wind Chill: 59°   Ceiling: 5000
Heat Index: 59°   Visibility: 5mi
Dew Point: 54°   Wind: 3mph
Humidity: 82%   Direction: 140°SE
Pressure: 30.06"   Gusts: NA
Location:  36.87°S, 60.17°W
Report Text: SAZM 232000Z 14003KT 8000 RA BKN050 BKN20015/12 Q1018
Loading
Personal Weather Stations






























Interactive Weather Map
Tropical Storm Tracking
New forecast layout! Learn more

10-Day Weather Forecast

Advertisements
Track Severe Weather on mobile